createdAt,value
2022-12-23T00:00:39.188Z,33.40
2022-12-23T00:03:06.909Z,34.33
2022-12-23T00:05:38.774Z,31.48
2022-12-23T00:08:07.051Z,35.17
2022-12-23T00:10:35.239Z,33.05
2022-12-23T00:13:20.759Z,34.08
2022-12-23T00:15:47.694Z,34.35
2022-12-23T00:18:15.176Z,35.90
2022-12-23T00:20:42.218Z,36.47
2022-12-23T00:23:09.139Z,35.28
2022-12-23T00:25:41.874Z,36.97
2022-12-23T00:28:12.143Z,38.38
2022-12-23T00:31:07.022Z,38.63
2022-12-23T00:36:16.998Z,37.28
2022-12-23T00:39:02.497Z,35.97
2022-12-23T00:41:48.232Z,39.13
2022-12-23T00:44:15.588Z,42.83
2022-12-23T00:46:42.636Z,37.67
2022-12-23T00:49:31.247Z,39.30
2022-12-23T00:51:58.913Z,42.35
2022-12-23T00:54:26.308Z,42.08
2022-12-23T00:56:53.311Z,37.22
2022-12-23T00:59:20.540Z,38.40
2022-12-23T01:02:06.110Z,37.90
2022-12-23T01:04:51.749Z,38.75
2022-12-23T01:07:18.643Z,40.90
2022-12-23T01:09:45.687Z,37.60
2022-12-23T01:12:13.348Z,39.05
2022-12-23T01:14:40.488Z,37.67
2022-12-23T01:17:08.581Z,40.55
2022-12-23T01:19:36.260Z,38.45
2022-12-23T01:22:03.385Z,37.67
2022-12-23T01:24:31.429Z,38.08
2022-12-23T01:26:58.535Z,36.95
2022-12-23T01:29:25.966Z,37.10
2022-12-23T01:31:53.199Z,34.83
2022-12-23T01:34:20.266Z,38.40
2022-12-23T01:36:47.275Z,38.95
2022-12-23T01:39:14.206Z,36.15
2022-12-23T01:41:59.585Z,35.20
2022-12-23T01:44:53.779Z,33.78
2022-12-23T01:47:23.482Z,34.53
2022-12-23T01:49:52.802Z,39.25
2022-12-23T01:52:20.139Z,36.85
2022-12-23T01:54:48.055Z,39.00
2022-12-23T01:57:14.984Z,35.40
2022-12-23T02:00:01.993Z,36.78
2022-12-23T02:02:49.061Z,32.47
2022-12-23T02:05:16.964Z,33.20
2022-12-23T02:08:02.783Z,32.72
2022-12-23T02:10:38.227Z,30.38
2022-12-23T02:13:30.522Z,29.33
2022-12-23T02:16:18.899Z,28.63
2022-12-23T02:19:17.812Z,30.83
2022-12-23T02:22:15.142Z,29.42
2022-12-23T02:25:17.469Z,27.27
2022-12-23T02:28:18.159Z,31.02
2022-12-23T02:31:09.735Z,30.17
2022-12-23T02:34:09.562Z,32.20
2022-12-23T02:37:05.383Z,31.95
2022-12-23T02:39:42.595Z,31.58
2022-12-23T02:42:21.563Z,31.80
2022-12-23T02:45:23.456Z,33.45
2022-12-23T02:47:56.239Z,32.45
2022-12-23T02:50:34.332Z,32.45
2022-12-23T02:53:10.048Z,37.15
2022-12-23T02:55:40.280Z,32.53
2022-12-23T02:58:13.536Z,35.80
2022-12-23T03:00:43.382Z,36.63
2022-12-23T03:03:10.477Z,34.95
2022-12-23T03:05:42.107Z,35.55
2022-12-23T03:08:34.682Z,36.90
2022-12-23T03:11:13.549Z,36.95
2022-12-23T03:14:07.994Z,32.63
2022-12-23T03:16:46.966Z,34.30
2022-12-23T03:19:34.522Z,34.05
2022-12-23T03:22:21.648Z,36.03
2022-12-23T03:25:08.435Z,32.83
2022-12-23T03:27:44.306Z,35.45
2022-12-23T03:30:15.004Z,33.70
2022-12-23T03:33:02.047Z,31.00
2022-12-23T03:35:35.158Z,30.02
2022-12-23T03:38:03.862Z,30.55
2022-12-23T03:40:42.955Z,29.95
2022-12-23T03:43:16.868Z,31.83
2022-12-23T03:45:48.534Z,31.25
2022-12-23T03:48:28.775Z,27.88
2022-12-23T03:51:04.427Z,29.45
2022-12-23T03:53:36.884Z,30.50
2022-12-23T03:56:19.099Z,27.13
2022-12-23T03:58:53.803Z,28.92
2022-12-23T04:01:35.291Z,27.02
2022-12-23T04:04:09.443Z,26.85
2022-12-23T04:09:08.007Z,29.58
2022-12-23T04:11:36.578Z,28.45
2022-12-23T04:14:03.652Z,30.30
2022-12-23T04:16:30.755Z,30.35
2022-12-23T04:18:57.811Z,29.00
2022-12-23T04:21:24.808Z,31.40
2022-12-23T04:23:51.760Z,30.27
2022-12-23T04:26:18.744Z,31.80
2022-12-23T04:28:45.636Z,30.70
2022-12-23T04:31:12.595Z,29.50
2022-12-23T04:33:39.507Z,29.00
2022-12-23T04:36:06.521Z,29.75
2022-12-23T04:38:33.450Z,30.83
2022-12-23T04:41:00.406Z,30.25
2022-12-23T04:43:27.343Z,30.52
2022-12-23T04:45:54.334Z,29.73
2022-12-23T04:48:21.333Z,28.42
2022-12-23T04:50:48.282Z,27.50
2022-12-23T04:53:15.338Z,26.45
2022-12-23T04:55:42.375Z,24.27
2022-12-23T04:58:09.388Z,27.92
2022-12-23T05:00:39.811Z,25.38
2022-12-23T05:03:07.438Z,26.20
2022-12-23T05:05:34.633Z,24.63
2022-12-23T05:08:05.958Z,29.15
2022-12-23T05:10:32.968Z,33.45
2022-12-23T05:13:00.014Z,31.67
2022-12-23T05:15:26.910Z,36.00
2022-12-23T05:17:53.834Z,35.30
2022-12-23T05:20:20.777Z,36.35
2022-12-23T05:22:47.671Z,34.20
2022-12-23T05:25:14.671Z,35.83
2022-12-23T05:27:41.534Z,33.45
2022-12-23T05:30:09.373Z,34.03
2022-12-23T05:32:36.279Z,34.38
2022-12-23T05:35:03.334Z,33.53
2022-12-23T05:37:30.278Z,30.27
2022-12-23T05:39:57.219Z,29.95
2022-12-23T05:42:24.448Z,32.90
2022-12-23T05:44:51.364Z,33.45
2022-12-23T05:47:18.296Z,34.95
2022-12-23T05:49:45.147Z,31.67
2022-12-23T05:52:12.139Z,32.75
2022-12-23T05:54:39.046Z,33.72
2022-12-23T05:57:05.984Z,32.47
2022-12-23T05:59:32.968Z,33.40
2022-12-23T06:02:00.123Z,32.15
2022-12-23T06:04:27.555Z,32.97
2022-12-23T06:06:54.471Z,32.63
2022-12-23T06:09:21.466Z,30.55
2022-12-23T06:11:48.566Z,32.03
2022-12-23T06:14:15.515Z,31.55
2022-12-23T06:16:42.828Z,29.67
2022-12-23T06:19:09.923Z,28.98
2022-12-23T06:21:36.916Z,28.05
2022-12-23T06:24:04.428Z,28.13
2022-12-23T06:26:31.429Z,26.67
2022-12-23T06:28:58.393Z,29.10
2022-12-23T06:31:25.436Z,28.45
2022-12-23T06:33:52.323Z,29.35
2022-12-23T06:36:19.715Z,30.20
2022-12-23T06:38:46.668Z,31.30
2022-12-23T06:41:14.042Z,29.15
2022-12-23T06:43:40.947Z,28.90
2022-12-23T06:46:08.010Z,29.35
2022-12-23T06:48:35.056Z,29.08
2022-12-23T06:51:02.025Z,29.65
2022-12-23T06:53:29.006Z,30.20
2022-12-23T06:56:03.625Z,29.05
2022-12-23T06:58:30.967Z,30.17
2022-12-23T07:00:58.051Z,28.77
2022-12-23T07:03:25.169Z,27.80
2022-12-23T07:05:52.638Z,28.30
2022-12-23T07:08:19.984Z,27.08
2022-12-23T07:10:47.109Z,24.95
2022-12-23T07:13:14.184Z,26.08
2022-12-23T07:15:41.122Z,26.38
2022-12-23T07:18:08.169Z,26.90
2022-12-23T07:20:35.150Z,30.13
2022-12-23T07:23:02.241Z,29.05
2022-12-23T07:25:29.299Z,27.08
2022-12-23T07:27:56.528Z,26.67
2022-12-23T07:30:24.084Z,25.90
2022-12-23T07:32:51.514Z,26.25
2022-12-23T07:35:18.801Z,25.90
2022-12-23T07:37:45.867Z,27.48
2022-12-23T07:40:13.027Z,28.08
2022-12-23T07:42:45.631Z,27.38
2022-12-23T07:45:13.077Z,26.73
2022-12-23T07:47:40.032Z,25.77
2022-12-23T07:50:07.718Z,24.67
2022-12-23T07:52:34.729Z,25.15
2022-12-23T07:55:01.688Z,22.83
2022-12-23T07:57:29.414Z,23.13
2022-12-23T07:59:57.183Z,22.13
2022-12-23T08:02:25.285Z,22.48
2022-12-23T08:04:52.593Z,24.08
2022-12-23T08:07:19.626Z,23.85
2022-12-23T08:09:46.553Z,23.42
2022-12-23T08:12:13.649Z,22.23
2022-12-23T08:14:40.607Z,25.80
2022-12-23T08:17:07.799Z,20.88
2022-12-23T08:19:34.881Z,22.30
2022-12-23T08:22:02.064Z,25.02
2022-12-23T08:24:29.318Z,23.08
2022-12-23T08:26:57.228Z,22.20
2022-12-23T08:29:24.734Z,23.30
2022-12-23T08:31:51.780Z,23.40
2022-12-23T08:34:19.434Z,21.95
2022-12-23T08:36:46.318Z,22.40
2022-12-23T08:39:14.128Z,20.02
2022-12-23T08:41:44.593Z,24.08
2022-12-23T08:44:15.155Z,24.60
2022-12-23T08:46:42.985Z,23.48
2022-12-23T08:49:10.927Z,21.23
2022-12-23T08:51:38.684Z,22.67
2022-12-23T08:54:06.450Z,20.80
2022-12-23T08:56:36.819Z,20.67
2022-12-23T08:59:04.272Z,22.45
2022-12-23T09:01:33.812Z,21.70
2022-12-23T09:04:05.383Z,22.98
2022-12-23T09:06:40.770Z,22.75
2022-12-23T09:09:10.043Z,20.48
2022-12-23T09:11:37.666Z,21.10
2022-12-23T09:14:05.700Z,22.05
2022-12-23T09:16:32.976Z,24.35
2022-12-23T09:18:59.976Z,21.80
2022-12-23T09:21:27.026Z,21.48
2022-12-23T09:23:54.003Z,22.55
2022-12-23T09:26:27.659Z,20.33
2022-12-23T09:28:55.857Z,22.08
2022-12-23T09:31:23.731Z,21.50
2022-12-23T09:33:52.993Z,19.80
2022-12-23T09:36:20.839Z,17.95
2022-12-23T09:38:48.178Z,21.83
2022-12-23T09:41:40.472Z,18.48
2022-12-23T09:44:28.909Z,17.10
2022-12-23T09:47:00.427Z,18.98
2022-12-23T09:49:29.214Z,17.17
2022-12-23T09:52:05.211Z,18.38
2022-12-23T09:54:46.141Z,17.00
2022-12-23T09:57:26.965Z,17.35
2022-12-23T10:00:10.326Z,14.73
2022-12-23T10:03:01.548Z,15.57
2022-12-23T10:05:59.291Z,16.20
2022-12-23T10:08:39.539Z,16.08
2022-12-23T10:11:26.657Z,17.00
2022-12-23T10:14:07.373Z,16.10
2022-12-23T10:16:45.974Z,16.77
2022-12-23T10:19:23.608Z,16.77
2022-12-23T10:22:27.503Z,15.82
2022-12-23T10:24:57.829Z,20.42
2022-12-23T10:27:42.390Z,17.13
2022-12-23T10:34:05.184Z,16.70
2022-12-23T10:36:45.654Z,13.68
2022-12-23T10:39:17.829Z,13.52
2022-12-23T10:42:07.550Z,14.93
2022-12-23T10:44:37.517Z,15.43
2022-12-23T10:47:25.057Z,13.90
2022-12-23T10:50:08.179Z,17.85
2022-12-23T10:52:39.335Z,19.10
2022-12-23T10:55:06.769Z,16.95
2022-12-23T10:57:35.431Z,16.83
2022-12-23T11:00:18.504Z,14.23
2022-12-23T11:02:55.045Z,14.18
2022-12-23T11:05:27.605Z,15.52
2022-12-23T11:07:58.791Z,15.88
2022-12-23T11:10:33.081Z,15.07
2022-12-23T11:13:03.532Z,15.52
2022-12-23T11:15:41.561Z,13.98
2022-12-23T11:18:14.777Z,14.73
2022-12-23T11:20:44.476Z,15.52
2022-12-23T11:23:33.693Z,16.58
2022-12-23T11:26:07.442Z,14.88
2022-12-23T11:28:38.846Z,14.30
2022-12-23T11:31:09.880Z,13.38
2022-12-23T11:33:41.082Z,13.55
2022-12-23T11:36:14.418Z,14.30
2022-12-23T11:38:54.701Z,14.65
2022-12-23T11:41:26.809Z,13.18
2022-12-23T11:44:02.396Z,13.05
2022-12-23T11:46:31.978Z,13.93
2022-12-23T11:49:26.524Z,11.80
2022-12-23T11:52:03.010Z,13.15
2022-12-23T11:54:31.344Z,13.15
2022-12-23T11:57:00.261Z,12.43
2022-12-23T11:59:43.357Z,13.52
2022-12-23T12:02:21.185Z,14.10
2022-12-23T12:05:04.832Z,15.10
2022-12-23T12:07:36.072Z,16.17
2022-12-23T12:10:04.905Z,14.10
2022-12-23T12:12:33.300Z,15.73
2022-12-23T12:15:00.638Z,14.50
2022-12-23T12:17:37.306Z,14.32
2022-12-23T12:20:22.946Z,16.25
2022-12-23T12:23:02.278Z,17.10
2022-12-23T12:26:14.230Z,18.13
2022-12-23T12:28:47.751Z,20.98
2022-12-23T12:31:26.105Z,20.73
2022-12-23T12:33:55.025Z,20.77
2022-12-23T12:36:46.448Z,20.15
2022-12-23T12:39:19.731Z,22.08
2022-12-23T12:42:14.096Z,21.23
2022-12-23T12:44:49.476Z,22.45
2022-12-23T12:47:53.196Z,20.92
2022-12-23T12:50:31.276Z,18.45
2022-12-23T12:53:09.118Z,19.80
2022-12-23T12:55:42.297Z,19.25
2022-12-23T12:58:20.444Z,19.57
2022-12-23T13:01:02.310Z,21.42
2022-12-23T13:04:07.600Z,20.73
2022-12-23T13:07:08.867Z,19.70
2022-12-23T13:09:54.537Z,19.80
2022-12-23T13:12:36.417Z,22.27
2022-12-23T13:15:21.152Z,23.02
2022-12-23T13:18:08.548Z,23.48
2022-12-23T13:21:09.626Z,20.00
2022-12-23T13:23:48.419Z,18.45
2022-12-23T13:26:22.520Z,21.02
2022-12-23T13:31:40.938Z,23.70
2022-12-23T13:34:35.234Z,25.10
2022-12-23T13:37:09.378Z,22.38
2022-12-23T13:42:06.435Z,24.45
2022-12-23T13:44:34.555Z,26.40
2022-12-23T13:47:20.019Z,24.50
2022-12-23T13:50:04.505Z,24.45
2022-12-23T13:53:09.072Z,24.30
2022-12-23T13:55:51.470Z,22.65
2022-12-23T13:58:31.285Z,21.20
2022-12-23T14:01:08.370Z,20.52
2022-12-23T14:03:40.091Z,21.27
2022-12-23T14:06:25.468Z,22.73
2022-12-23T14:08:55.178Z,21.35
2022-12-23T14:11:26.535Z,23.45
2022-12-23T14:14:01.367Z,24.55
2022-12-23T14:16:42.167Z,22.25
2022-12-23T14:19:36.055Z,23.88
2022-12-23T14:22:35.319Z,22.48
2022-12-23T14:25:40.028Z,22.65
2022-12-23T14:28:41.606Z,23.25
2022-12-23T14:31:38.069Z,21.70
2022-12-23T14:34:32.286Z,22.17
2022-12-23T14:37:21.302Z,23.20
2022-12-23T14:39:49.439Z,21.83
2022-12-23T14:42:34.139Z,19.38
2022-12-23T14:45:36.818Z,19.85
2022-12-23T14:48:35.915Z,16.45
2022-12-23T14:51:21.903Z,15.68
2022-12-23T14:53:55.494Z,15.48
2022-12-23T14:56:54.799Z,13.98
2022-12-23T14:59:37.672Z,14.18
2022-12-23T15:02:18.026Z,13.85
2022-12-23T15:04:46.572Z,13.23
2022-12-23T15:07:21.818Z,13.95
2022-12-23T15:10:00.787Z,13.80
2022-12-23T15:12:36.031Z,13.65
2022-12-23T15:15:23.286Z,13.57
2022-12-23T15:18:04.983Z,13.35
2022-12-23T15:20:33.088Z,13.88
2022-12-23T15:23:01.647Z,14.23
2022-12-23T15:25:40.822Z,12.35
2022-12-23T15:28:18.687Z,14.25
2022-12-23T15:30:55.040Z,14.27
2022-12-23T15:36:12.337Z,13.13
2022-12-23T15:38:39.846Z,12.57
2022-12-23T15:41:15.393Z,12.98
2022-12-23T15:43:42.988Z,14.35
2022-12-23T15:46:26.983Z,12.60
2022-12-23T15:48:57.040Z,13.65
2022-12-23T15:52:05.058Z,14.18
2022-12-23T15:54:21.660Z,14.85
2022-12-23T15:56:51.921Z,16.20
2022-12-23T15:59:33.447Z,19.17
2022-12-23T16:02:40.348Z,19.30
2022-12-23T16:05:05.832Z,19.63
2022-12-23T16:07:37.050Z,18.58
2022-12-23T16:10:13.349Z,21.50
2022-12-23T16:12:41.286Z,20.85
2022-12-23T16:15:22.303Z,20.33
2022-12-23T16:17:49.230Z,23.00
2022-12-23T16:20:16.029Z,22.08
2022-12-23T16:22:44.778Z,24.30
2022-12-23T16:25:24.652Z,21.85
2022-12-23T16:28:09.131Z,21.83
2022-12-23T16:33:07.732Z,26.23
2022-12-23T16:35:40.670Z,23.73
2022-12-23T16:38:14.055Z,21.52
2022-12-23T16:40:41.921Z,25.30
2022-12-23T16:43:09.190Z,22.88
2022-12-23T16:45:37.120Z,23.20
2022-12-23T16:48:20.974Z,22.83
2022-12-23T16:50:49.270Z,23.98
2022-12-23T16:53:16.511Z,23.63
2022-12-23T16:55:51.177Z,22.13
2022-12-23T16:58:22.332Z,23.85
2022-12-23T17:00:49.472Z,22.98
2022-12-23T17:03:19.158Z,22.85
2022-12-23T17:05:47.851Z,26.30
2022-12-23T17:08:15.325Z,23.60
2022-12-23T17:10:44.578Z,22.50
2022-12-23T17:13:17.757Z,22.30
2022-12-23T17:15:45.560Z,23.60
2022-12-23T17:18:14.568Z,23.52
2022-12-23T17:20:43.405Z,21.10
2022-12-23T17:23:23.939Z,18.85
2022-12-23T17:25:52.328Z,20.33
2022-12-23T17:28:22.481Z,23.38
2022-12-23T17:30:55.209Z,20.85
2022-12-23T17:33:24.776Z,20.80
2022-12-23T17:35:53.898Z,19.20
2022-12-23T17:38:21.551Z,19.85
2022-12-23T17:40:49.283Z,18.65
2022-12-23T17:43:17.537Z,21.63
2022-12-23T17:45:45.748Z,19.65
2022-12-23T17:48:19.766Z,18.92
2022-12-23T17:50:48.697Z,20.45
2022-12-23T17:53:18.967Z,21.05
2022-12-23T17:55:46.330Z,21.73
2022-12-23T17:58:14.260Z,20.83
2022-12-23T18:00:41.421Z,21.33
2022-12-23T18:03:22.797Z,21.65
2022-12-23T18:05:54.277Z,19.88
2022-12-23T18:08:26.159Z,18.13
2022-12-23T18:10:53.178Z,20.65
2022-12-23T18:13:20.691Z,19.15
2022-12-23T18:15:47.861Z,20.35
2022-12-23T18:18:32.115Z,17.45
2022-12-23T18:21:02.442Z,17.23
2022-12-23T18:23:31.593Z,20.17
2022-12-23T18:25:58.969Z,18.15
2022-12-23T18:28:26.658Z,20.17
2022-12-23T18:30:56.291Z,23.27
2022-12-23T18:33:24.259Z,21.15
2022-12-23T18:35:51.515Z,20.77
2022-12-23T18:38:18.679Z,19.85
2022-12-23T18:40:45.810Z,20.45
2022-12-23T18:43:24.746Z,19.67
2022-12-23T18:45:53.839Z,21.58
2022-12-23T18:48:21.777Z,20.73
2022-12-23T18:50:48.824Z,19.88
2022-12-23T18:53:23.711Z,20.80
2022-12-23T18:55:53.059Z,22.30
2022-12-23T18:58:20.603Z,23.27
2022-12-23T19:00:49.079Z,23.13
2022-12-23T19:03:25.866Z,22.08
2022-12-23T19:05:54.043Z,22.40
2022-12-23T19:08:27.079Z,21.52
2022-12-23T19:10:55.586Z,20.05
2022-12-23T19:13:22.763Z,19.25
2022-12-23T19:15:50.319Z,21.63
2022-12-23T19:18:19.738Z,21.70
2022-12-23T19:20:47.743Z,19.17
2022-12-23T19:23:15.775Z,21.23
2022-12-23T19:25:50.726Z,20.42
2022-12-23T19:28:21.786Z,21.33
2022-12-23T19:30:49.242Z,20.35
2022-12-23T19:33:16.334Z,20.00
2022-12-23T19:35:46.239Z,19.27
2022-12-23T19:38:13.179Z,19.75
2022-12-23T19:40:40.490Z,21.42
2022-12-23T19:43:07.417Z,20.70
2022-12-23T19:45:34.342Z,20.35
2022-12-23T19:48:01.188Z,20.33
2022-12-23T19:50:28.261Z,19.77
2022-12-23T19:52:56.567Z,22.55
2022-12-23T19:55:24.125Z,20.00
2022-12-23T19:57:52.212Z,19.90
2022-12-23T20:00:19.207Z,21.00
2022-12-23T20:02:46.265Z,20.38
2022-12-23T20:05:13.151Z,21.33
2022-12-23T20:07:40.103Z,24.17
2022-12-23T20:10:07.705Z,22.58
2022-12-23T20:12:34.670Z,20.70
2022-12-23T20:15:01.664Z,22.40
2022-12-23T20:17:28.616Z,21.95
2022-12-23T20:19:55.536Z,20.60
2022-12-23T20:22:22.459Z,21.50
2022-12-23T20:24:49.844Z,21.67
2022-12-23T20:27:19.135Z,22.20
2022-12-23T20:29:49.688Z,22.17
2022-12-23T20:32:16.621Z,21.88
2022-12-23T20:34:43.536Z,20.27
2022-12-23T20:37:11.737Z,20.38
2022-12-23T20:39:38.713Z,21.23
2022-12-23T20:42:05.622Z,22.27
2022-12-23T20:44:34.884Z,22.30
2022-12-23T20:47:03.193Z,20.02
2022-12-23T20:49:30.244Z,22.33
2022-12-23T20:51:57.144Z,21.48
2022-12-23T20:54:31.567Z,20.75
2022-12-23T20:57:00.173Z,22.88
2022-12-23T20:59:27.073Z,21.40
2022-12-23T21:01:54.152Z,22.30
2022-12-23T21:04:22.563Z,22.02
2022-12-23T21:06:49.842Z,20.95
2022-12-23T21:09:17.056Z,20.52
2022-12-23T21:11:45.958Z,23.35
2022-12-23T21:14:13.908Z,21.25
2022-12-23T21:16:41.563Z,23.67
2022-12-23T21:19:13.813Z,20.98
2022-12-23T21:21:40.670Z,21.10
2022-12-23T21:24:07.886Z,19.58
2022-12-23T21:26:35.168Z,21.38
2022-12-23T21:29:04.356Z,22.30
2022-12-23T21:31:33.906Z,21.77
2022-12-23T21:34:01.552Z,20.33
2022-12-23T21:36:31.300Z,22.67
2022-12-23T21:38:59.099Z,19.67
2022-12-23T21:41:29.175Z,20.90
2022-12-23T21:43:57.384Z,20.92
2022-12-23T21:46:25.486Z,20.55
2022-12-23T21:48:52.710Z,21.25
2022-12-23T21:51:22.801Z,18.67
2022-12-23T21:53:52.379Z,21.75
2022-12-23T21:56:26.096Z,21.25
2022-12-23T21:58:57.998Z,21.20
2022-12-23T22:01:25.679Z,21.42
2022-12-23T22:03:53.323Z,20.17
2022-12-23T22:06:28.743Z,21.75
2022-12-23T22:08:56.529Z,22.48
2022-12-23T22:11:29.840Z,20.13
2022-12-23T22:13:58.830Z,20.88
2022-12-23T22:16:27.513Z,20.90
2022-12-23T22:18:56.331Z,21.00
2022-12-23T22:21:25.392Z,21.20
2022-12-23T22:23:54.639Z,20.58
2022-12-23T22:26:25.794Z,19.98
2022-12-23T22:28:57.449Z,20.83
2022-12-23T22:31:38.163Z,22.77
2022-12-23T22:34:06.209Z,20.42
2022-12-23T22:36:34.039Z,21.83
2022-12-23T22:39:02.046Z,21.80
2022-12-23T22:41:30.378Z,22.27
2022-12-23T22:43:58.562Z,20.80
2022-12-23T22:46:26.264Z,20.50
2022-12-23T22:48:53.602Z,21.77
2022-12-23T22:51:29.088Z,19.85
2022-12-23T22:53:56.623Z,23.67
2022-12-23T22:56:25.319Z,22.20
2022-12-23T22:58:53.088Z,22.60
2022-12-23T23:01:27.738Z,22.35
2022-12-23T23:03:57.528Z,24.65
2022-12-23T23:06:30.584Z,23.50
2022-12-23T23:08:58.084Z,23.50
2022-12-23T23:11:26.289Z,21.67
2022-12-23T23:13:53.999Z,20.90
2022-12-23T23:16:21.145Z,21.23
2022-12-23T23:18:48.261Z,19.75
2022-12-23T23:21:15.973Z,20.63
2022-12-23T23:23:42.974Z,20.63
2022-12-23T23:26:10.634Z,20.52
2022-12-23T23:28:41.106Z,20.45
2022-12-23T23:31:40.503Z,19.67
2022-12-23T23:33:57.785Z,20.40
2022-12-23T23:36:25.124Z,20.55
2022-12-23T23:38:52.160Z,21.42
2022-12-23T23:41:23.221Z,20.25
2022-12-23T23:43:51.612Z,22.05
2022-12-23T23:46:19.051Z,21.65
2022-12-23T23:48:46.072Z,20.92
2022-12-23T23:51:13.006Z,20.70
2022-12-23T23:53:40.390Z,20.00
2022-12-23T23:56:08.564Z,19.55
2022-12-23T23:58:36.671Z,20.90
